Time;durP1;ratioP1;P1;durP2;ratioP2;P2;SDS_P1;SDS_P2;PMS_P1;PMS_P2;Temp;Humidity;BMP_temperature;BMP_pressure;BME280_temperature;BME280_humidity;BME280_pressure;Samples;Min_cycle;Max_cycle;Signal;HPM_P1;HPM_P2
2021/12/13 00:01:17;;;;;;;165.50;26.23;;;9.00;99.90;;;;;;4811881;29;20062;-87
2021/12/13 00:04:03;;;;;;;143.05;22.95;;;9.00;99.90;;;;;;4809033;29;20069;-87
2021/12/13 00:06:40;;;;;;;97.68;20.52;;;9.00;99.90;;;;;;4811205;29;20058;-87
2021/12/13 00:09:16;;;;;;;131.07;22.13;;;8.90;99.90;;;;;;4811663;29;20129;-87
2021/12/13 00:11:45;;;;;;;120.40;20.25;;;8.90;99.90;;;;;;4811307;29;20093;-87
2021/12/13 00:14:21;;;;;;;116.85;19.48;;;8.90;99.90;;;;;;4827620;29;20107;-87
2021/12/13 00:16:56;;;;;;;110.38;19.25;;;8.90;99.90;;;;;;4811359;29;20121;-87
2021/12/13 00:19:30;;;;;;;92.18;19.90;;;8.80;99.90;;;;;;4811655;29;20050;-87
2021/12/13 00:21:59;;;;;;;103.55;18.30;;;8.80;99.90;;;;;;4811350;29;20058;-87
2021/12/13 00:24:36;;;;;;;89.28;17.38;;;8.80;99.90;;;;;;4811079;29;20502;-87
2021/12/13 00:27:11;;;;;;;102.43;17.83;;;8.70;99.90;;;;;;4827457;29;20046;-87
2021/12/13 00:29:47;;;;;;;95.75;17.67;;;8.80;99.90;;;;;;4811400;29;20432;-87
2021/12/13 00:32:26;;;;;;;103.07;18.90;;;8.80;99.90;;;;;;4811116;29;20093;-87
2021/12/13 00:34:54;;;;;;;92.72;16.95;;;8.80;99.90;;;;;;4811595;29;20042;-87
2021/12/13 00:37:33;;;;;;;108.03;17.73;;;8.80;99.90;;;;;;4811111;29;20122;-87
2021/12/13 00:40:14;;;;;;;101.93;17.02;;;8.80;99.90;;;;;;4811147;29;20054;-87
2021/12/13 00:42:49;;;;;;;108.22;18.63;;;8.80;99.90;;;;;;4827221;29;20053;-88
2021/12/13 00:45:19;;;;;;;98.38;18.58;;;8.80;99.90;;;;;;4810846;29;20085;-87
2021/12/13 00:47:45;;;;;;;121.28;19.88;;;8.80;99.90;;;;;;4810780;29;20046;-87
2021/12/13 00:50:19;;;;;;;129.90;19.42;;;8.80;99.90;;;;;;4811033;29;20138;-87
2021/12/13 00:52:48;;;;;;;119.53;18.10;;;8.70;99.90;;;;;;4810624;29;20085;-87
2021/12/13 00:55:30;;;;;;;119.88;19.15;;;8.80;99.90;;;;;;4825257;29;20058;-87
2021/12/13 00:58:07;;;;;;;148.68;19.98;;;8.80;99.90;;;;;;4825633;29;20058;-87
2021/12/13 01:00:44;;;;;;;152.68;21.65;;;8.80;99.90;;;;;;4825918;29;20066;-87
2021/12/13 01:03:16;;;;;;;111.13;19.70;;;8.80;99.90;;;;;;4825839;29;20078;-87
2021/12/13 01:06:06;;;;;;;110.53;18.90;;;8.80;99.90;;;;;;4825694;29;20086;-87
2021/12/13 01:08:51;;;;;;;116.65;20.90;;;8.80;99.90;;;;;;4825528;29;20509;-87
2021/12/13 01:11:38;;;;;;;131.27;19.88;;;8.80;99.90;;;;;;4825788;29;20059;-87
2021/12/13 01:14:34;;;;;;;133.77;18.50;;;8.80;99.90;;;;;;4825755;29;20491;-87
2021/12/13 01:17:14;;;;;;;135.82;19.23;;;8.80;99.90;;;;;;4826329;29;20062;-87
2021/12/13 01:19:59;;;;;;;116.75;19.88;;;8.80;99.90;;;;;;4825307;29;20499;-87
2021/12/13 01:22:50;;;;;;;146.38;21.20;;;8.80;99.90;;;;;;4825618;29;20038;-87
2021/12/13 01:28:32;;;;;;;134.25;21.73;;;8.80;99.90;;;;;;4840910;29;20123;-87
2021/12/13 01:31:07;;;;;;;137.93;22.98;;;8.80;99.90;;;;;;4826023;29;20061;-87
2021/12/13 01:33:34;;;;;;;127.75;21.73;;;8.80;99.90;;;;;;4825179;29;20046;-87
2021/12/13 01:36:04;;;;;;;141.48;22.70;;;8.80;99.90;;;;;;4825115;29;20054;-87
2021/12/13 01:38:53;;;;;;;146.15;22.55;;;8.80;99.90;;;;;;4825391;29;20384;-87
2021/12/13 01:41:23;;;;;;;145.80;22.13;;;8.80;99.90;;;;;;4824633;29;20064;-87
2021/12/13 01:43:53;;;;;;;161.55;23.45;;;8.80;99.90;;;;;;4825819;29;20054;-87
2021/12/13 01:46:21;;;;;;;149.23;22.92;;;8.70;99.90;;;;;;4825526;29;20042;-87
2021/12/13 01:48:48;;;;;;;145.07;23.08;;;8.70;99.90;;;;;;4825226;29;20039;-87
2021/12/13 01:51:19;;;;;;;123.18;20.75;;;8.70;99.90;;;;;;4824938;29;20403;-87
2021/12/13 01:54:14;;;;;;;147.65;23.02;;;8.70;99.90;;;;;;4824728;29;20059;-87
2021/12/13 01:59:54;;;;;;;140.98;24.33;;;8.70;99.90;;;;;;4817713;29;20092;-87
2021/12/13 02:02:32;;;;;;;135.63;23.25;;;8.60;99.90;;;;;;4824979;29;20065;-87
2021/12/13 02:05:12;;;;;;;117.05;21.92;;;8.60;99.90;;;;;;4824987;29;20054;-87
2021/12/13 02:07:58;;;;;;;116.78;23.13;;;8.60;99.90;;;;;;4825014;29;20046;-88
2021/12/13 02:10:44;;;;;;;116.75;23.33;;;8.60;99.90;;;;;;4825009;29;20055;-87
2021/12/13 02:13:22;;;;;;;120.07;23.23;;;8.60;99.90;;;;;;4824859;29;20081;-87
2021/12/13 02:18:39;;;;;;;127.15;23.15;;;8.70;99.90;;;;;;4839705;29;20414;-87
2021/12/13 02:21:23;;;;;;;123.05;22.13;;;8.70;99.90;;;;;;4824437;29;20058;-87
2021/12/13 02:23:51;;;;;;;106.55;21.35;;;8.70;99.90;;;;;;4825018;29;20058;-88
2021/12/13 02:26:18;;;;;;;115.30;22.63;;;8.60;99.90;;;;;;4824889;29;20182;-87
2021/12/13 02:28:46;;;;;;;114.72;22.40;;;8.60;99.90;;;;;;4824651;29;20058;-88
2021/12/13 02:31:27;;;;;;;119.40;22.83;;;8.60;99.90;;;;;;4824186;29;20042;-88
2021/12/13 02:33:58;;;;;;;110.57;23.10;;;8.60;99.90;;;;;;4824472;29;20156;-87
2021/12/13 02:36:48;;;;;;;125.32;22.60;;;8.60;99.90;;;;;;4825043;29;20107;-87
2021/12/13 02:39:18;;;;;;;132.98;22.95;;;8.60;99.90;;;;;;4819222;29;20070;-88
2021/12/13 02:41:46;;;;;;;130.43;22.98;;;8.60;99.90;;;;;;4824095;29;20107;-88
2021/12/13 02:44:22;;;;;;;115.85;21.75;;;8.60;99.90;;;;;;4824316;29;20054;-88
2021/12/13 02:46:47;;;;;;;124.93;23.02;;;8.70;99.90;;;;;;4824674;29;20147;-87
2021/12/13 02:49:16;;;;;;;138.63;22.77;;;8.60;99.90;;;;;;4824389;29;20565;-87
2021/12/13 02:51:55;;;;;;;127.68;22.77;;;8.60;99.90;;;;;;4824173;29;20406;-87
2021/12/13 02:54:28;;;;;;;119.18;21.90;;;8.60;99.90;;;;;;4824126;29;20081;-87
2021/12/13 02:57:06;;;;;;;117.15;22.80;;;8.60;99.90;;;;;;4823979;29;20087;-87
2021/12/13 02:59:34;;;;;;;121.68;22.65;;;8.60;99.90;;;;;;4823927;29;20050;-87
2021/12/13 03:02:11;;;;;;;142.18;27.00;;;8.60;99.90;;;;;;4824169;29;20046;-88
2021/12/13 03:04:37;;;;;;;136.95;22.67;;;8.60;99.90;;;;;;4824195;29;20088;-87
2021/12/13 03:07:11;;;;;;;136.60;23.80;;;8.60;99.90;;;;;;4824551;29;20086;-87
2021/12/13 03:09:41;;;;;;;128.05;23.05;;;8.60;99.90;;;;;;4825112;29;20054;-87
2021/12/13 03:12:11;;;;;;;135.55;24.23;;;8.60;99.90;;;;;;4823217;29;20046;-87
2021/12/13 03:14:44;;;;;;;115.68;22.77;;;8.60;99.90;;;;;;4823917;29;20050;-87
2021/12/13 03:17:16;;;;;;;155.38;27.40;;;8.60;99.90;;;;;;4823875;29;20061;-87
2021/12/13 03:19:42;;;;;;;126.95;23.42;;;8.50;99.90;;;;;;4823881;29;20050;-87
2021/12/13 03:22:35;;;;;;;116.20;24.55;;;8.60;99.90;;;;;;4823878;29;20061;-87
2021/12/13 03:25:22;;;;;;;117.30;23.70;;;8.60;99.90;;;;;;4823753;29;20054;-87
2021/12/13 03:27:59;;;;;;;123.82;22.88;;;8.60;99.90;;;;;;4823992;29;20090;-87
2021/12/13 03:30:31;;;;;;;114.78;23.13;;;8.60;99.90;;;;;;4824132;29;20054;-87
2021/12/13 03:33:00;;;;;;;117.72;22.70;;;8.60;99.90;;;;;;4824153;29;20062;-87
2021/12/13 03:35:41;;;;;;;108.78;23.40;;;8.60;99.90;;;;;;4823862;29;20124;-87
2021/12/13 03:38:19;;;;;;;89.28;19.38;;;8.60;99.90;;;;;;4823481;29;20054;-87
2021/12/13 03:40:47;;;;;;;95.45;19.95;;;8.60;99.90;;;;;;4823438;29;20507;-87
2021/12/13 03:43:19;;;;;;;83.20;19.35;;;8.60;99.90;;;;;;4823453;29;20103;-87
2021/12/13 03:45:50;;;;;;;87.38;18.88;;;8.60;99.90;;;;;;4824899;29;20042;-88
2021/12/13 03:48:20;;;;;;;78.32;19.17;;;8.60;99.90;;;;;;4823640;29;20072;-87
2021/12/13 03:50:52;;;;;;;80.28;16.65;;;8.60;99.90;;;;;;4824110;29;20099;-87
2021/12/13 03:53:21;;;;;;;71.18;16.48;;;8.60;99.90;;;;;;4823267;29;20502;-87
2021/12/13 03:55:51;;;;;;;76.93;17.23;;;8.60;99.90;;;;;;4823321;29;20055;-87
2021/12/13 03:58:20;;;;;;;71.57;15.02;;;8.60;99.90;;;;;;4823228;29;20122;-87
2021/12/13 04:00:52;;;;;;;76.25;16.30;;;8.60;99.90;;;;;;4823481;29;20398;-87
2021/12/13 04:03:21;;;;;;;68.43;15.70;;;8.60;99.90;;;;;;4823251;29;20070;-87
2021/12/13 04:05:48;;;;;;;63.60;13.98;;;8.60;99.90;;;;;;4823295;29;20303;-87
2021/12/13 04:08:17;;;;;;;66.18;14.32;;;8.60;99.90;;;;;;4823301;29;20514;-88
2021/12/13 04:10:54;;;;;;;62.03;14.38;;;8.70;99.90;;;;;;4823210;29;20054;-88
2021/12/13 04:13:26;;;;;;;65.70;14.25;;;8.70;99.90;;;;;;4823261;29;20051;-88
2021/12/13 04:17:02;;;;;;;66.07;15.38;;;8.60;99.90;;;;;;4823108;29;20050;-88
2021/12/13 04:19:51;;;;;;;56.63;14.63;;;8.70;99.90;;;;;;4823018;29;20089;-88
2021/12/13 04:22:19;;;;;;;58.22;14.32;;;8.70;99.90;;;;;;4823041;29;20042;-88
2021/12/13 04:24:54;;;;;;;53.85;12.68;;;8.70;99.90;;;;;;4826339;29;20145;-88
2021/12/13 04:27:34;;;;;;;67.38;15.73;;;8.70;99.90;;;;;;4826306;29;20570;-88
2021/12/13 04:30:14;;;;;;;56.92;14.50;;;8.70;99.90;;;;;;4826886;29;20054;-88
2021/12/13 04:32:45;;;;;;;57.50;16.25;;;8.70;99.90;;;;;;4826404;29;20133;-88
2021/12/13 04:35:13;;;;;;;60.78;15.85;;;8.70;99.90;;;;;;4826161;29;20145;-88
2021/12/13 04:37:45;;;;;;;69.22;17.85;;;8.70;99.90;;;;;;4826063;29;20099;-88
2021/12/13 04:40:16;;;;;;;60.47;17.83;;;8.70;99.90;;;;;;4826194;29;20058;-88
2021/12/13 04:42:42;;;;;;;59.97;15.77;;;8.70;99.90;;;;;;4826192;29;20050;-87
2021/12/13 04:45:17;;;;;;;51.92;14.77;;;8.70;99.90;;;;;;4826175;29;20065;-88
2021/12/13 04:47:52;;;;;;;61.13;13.82;;;8.70;99.90;;;;;;4826201;29;20039;-88
2021/12/13 04:50:36;;;;;;;50.92;13.60;;;8.60;99.90;;;;;;4826267;29;20047;-88
2021/12/13 04:53:03;;;;;;;48.80;14.88;;;8.60;99.90;;;;;;4825856;29;20057;-88
2021/12/13 04:55:36;;;;;;;46.78;11.93;;;8.60;99.90;;;;;;4810972;29;20050;-88
2021/12/13 04:58:04;;;;;;;;;;;8.60;99.90;;;;;;4811300;29;20081;-88
2021/12/13 05:00:34;;;;;;;35.03;10.45;;;8.50;99.90;;;;;;4810743;29;19924;-88
2021/12/13 05:03:04;;;;;;;33.75;9.60;;;8.50;99.90;;;;;;4810883;29;20050;-88
2021/12/13 05:05:32;;;;;;;40.38;9.32;;;8.50;99.90;;;;;;4810670;29;20051;-88
2021/12/13 05:07:58;;;;;;;30.45;10.18;;;8.50;99.90;;;;;;4810494;29;20053;-88
2021/12/13 05:10:25;;;;;;;30.65;8.50;;;8.50;99.90;;;;;;4810646;29;20050;-88
2021/12/13 05:13:05;;;;;;;37.03;9.05;;;8.40;99.90;;;;;;4810905;29;20086;-88
2021/12/13 05:15:32;;;;;;;29.88;8.13;;;8.40;99.90;;;;;;4810778;29;20054;-89
2021/12/13 05:17:59;;;;;;;28.15;8.90;;;8.40;99.90;;;;;;4810617;29;20081;-88
2021/12/13 05:20:31;;;;;;;29.60;8.43;;;8.30;99.90;;;;;;4810815;29;20046;-88
2021/12/13 05:23:05;;;;;;;24.55;8.40;;;8.30;99.90;;;;;;4810335;29;20050;-88
2021/12/13 05:25:33;;;;;;;35.08;8.70;;;8.30;99.90;;;;;;4810262;29;20475;-88
2021/12/13 05:28:22;;;;;;;36.10;8.55;;;8.30;99.90;;;;;;4810494;29;20432;-89
2021/12/13 05:31:01;;;;;;;30.17;8.18;;;8.30;99.90;;;;;;4810373;29;20506;-88
2021/12/13 05:33:30;;;;;;;23.10;7.15;;;8.30;99.90;;;;;;4810409;29;20046;-89
2021/12/13 05:35:59;;;;;;;20.52;7.95;;;8.40;99.90;;;;;;4809237;29;20108;-89
2021/12/13 05:38:27;;;;;;;21.00;8.15;;;8.30;99.90;;;;;;4810018;29;20050;-89
2021/12/13 05:40:54;;;;;;;22.40;9.95;;;8.40;99.90;;;;;;4809969;29;20166;-88
2021/12/13 05:43:26;;;;;;;28.40;9.70;;;8.40;99.90;;;;;;4810235;29;20121;-88
2021/12/13 05:46:05;;;;;;;32.50;10.88;;;8.40;99.90;;;;;;4810218;29;20141;-88
2021/12/13 05:48:34;;;;;;;27.48;9.70;;;8.40;99.90;;;;;;4810218;29;20518;-88
2021/12/13 05:51:04;;;;;;;27.75;10.25;;;8.40;99.90;;;;;;4809879;29;20046;-89
2021/12/13 05:53:36;;;;;;;30.13;11.23;;;8.40;99.90;;;;;;4811484;29;20137;-88
2021/12/13 05:56:16;;;;;;;30.75;11.32;;;8.40;99.90;;;;;;4825838;29;20046;-89
2021/12/13 05:58:48;;;;;;;31.48;15.15;;;8.40;99.90;;;;;;4825041;29;20061;-88
2021/12/13 06:01:20;;;;;;;29.23;14.65;;;8.30;99.90;;;;;;4824887;29;20565;-88
2021/12/13 06:04:23;;;;;;;32.97;14.88;;;8.40;99.90;;;;;;4824845;29;20054;-89
2021/12/13 06:06:55;;;;;;;34.85;17.02;;;8.40;99.90;;;;;;4794469;29;20064;-89
2021/12/13 06:09:40;;;;;;;35.40;16.48;;;8.40;99.90;;;;;;4825208;29;20133;-89
2021/12/13 06:12:09;;;;;;;30.77;16.63;;;8.40;99.90;;;;;;4824774;29;20497;-89
2021/12/13 06:14:36;;;;;;;37.33;15.38;;;8.40;99.90;;;;;;4824730;29;20053;-88
2021/12/13 06:17:07;;;;;;;33.22;16.20;;;8.40;99.90;;;;;;4824831;29;20064;-88
2021/12/13 06:19:46;;;;;;;41.28;18.27;;;8.40;99.90;;;;;;4824535;29;20498;-89
2021/12/13 06:22:20;;;;;;;42.85;16.35;;;8.50;99.90;;;;;;4824758;29;20050;-88
2021/12/13 06:24:57;;;;;;;40.95;18.77;;;8.40;99.90;;;;;;4824865;29;20511;-89
2021/12/13 06:27:33;;;;;;;34.65;17.02;;;8.50;99.90;;;;;;4824796;29;20046;-88
2021/12/13 06:30:09;;;;;;;37.90;16.85;;;8.50;99.90;;;;;;4824365;29;20444;-89
2021/12/13 06:32:49;;;;;;;37.05;16.23;;;8.50;99.90;;;;;;4824445;29;20053;-88
2021/12/13 06:35:34;;;;;;;38.03;16.67;;;8.50;99.90;;;;;;4824939;29;20051;-88
2021/12/13 06:38:20;;;;;;;35.15;16.85;;;8.60;99.90;;;;;;4824463;29;20046;-88
2021/12/13 06:40:51;;;;;;;41.63;18.75;;;8.60;99.90;;;;;;4823988;29;20057;-88
2021/12/13 06:43:36;;;;;;;39.92;17.25;;;8.60;99.90;;;;;;4824329;29;20047;-88
2021/12/13 06:46:07;;;;;;;28.38;16.65;;;8.60;99.90;;;;;;4824328;29;20097;-89
2021/12/13 06:48:45;;;;;;;35.10;16.42;;;8.60;99.90;;;;;;4824162;29;20502;-87
2021/12/13 06:51:14;;;;;;;32.83;16.95;;;8.60;99.90;;;;;;4824382;29;20054;-89
2021/12/13 06:53:57;;;;;;;38.38;18.35;;;8.50;99.90;;;;;;4823891;29;20407;-88
2021/12/13 06:56:30;;;;;;;33.78;16.45;;;8.50;99.90;;;;;;4824163;29;20487;-89
2021/12/13 06:58:58;;;;;;;;;;;8.50;99.90;;;;;;4824428;29;20084;-89
2021/12/13 07:01:27;;;;;;;27.52;15.13;;;8.50;99.90;;;;;;4824335;29;19924;-88
2021/12/13 07:04:13;;;;;;;27.30;14.38;;;8.50;99.90;;;;;;4823947;29;20402;-89
2021/12/13 07:06:39;;;;;;;29.50;15.45;;;8.50;99.90;;;;;;4824057;29;20059;-89
2021/12/13 07:09:11;;;;;;;34.70;15.65;;;8.50;99.90;;;;;;4824074;29;20060;-89
2021/12/13 07:11:50;;;;;;;28.25;15.55;;;8.40;99.90;;;;;;4824070;29;20057;-89
2021/12/13 07:14:19;;;;;;;25.20;14.65;;;8.40;99.90;;;;;;4824091;29;20054;-89
2021/12/13 07:16:52;;;;;;;29.70;14.15;;;8.50;99.90;;;;;;4823860;29;20058;-89
2021/12/13 07:19:26;;;;;;;32.38;14.90;;;8.40;99.90;;;;;;4823719;29;20096;-88
2021/12/13 07:21:56;;;;;;;32.08;13.98;;;8.50;99.90;;;;;;4823810;29;20118;-89
2021/12/13 07:24:44;;;;;;;27.42;14.27;;;8.40;99.90;;;;;;4824110;29;20057;-89
2021/12/13 07:27:12;;;;;;;25.27;13.27;;;8.50;99.90;;;;;;4824532;29;20054;-89
2021/12/13 07:29:51;;;;;;;31.17;14.90;;;8.50;99.90;;;;;;4823278;29;20057;-89
2021/12/13 07:32:26;;;;;;;31.23;14.18;;;8.50;99.90;;;;;;4823960;29;20050;-89
2021/12/13 07:35:22;;;;;;;25.88;14.10;;;8.50;99.90;;;;;;4823683;29;20191;-88
2021/12/13 07:37:56;;;;;;;33.08;15.20;;;8.50;99.90;;;;;;4809393;29;20074;-90
2021/12/13 07:40:33;;;;;;;27.25;14.38;;;8.50;99.90;;;;;;4822619;29;20117;-89
2021/12/13 07:43:17;;;;;;;27.48;14.55;;;8.40;99.90;;;;;;4823285;29;20084;-89
2021/12/13 07:45:58;;;;;;;28.25;15.02;;;8.50;99.90;;;;;;4823475;29;20088;-89
2021/12/13 07:48:34;;;;;;;28.75;14.85;;;8.40;99.90;;;;;;4823219;29;20054;-89
2021/12/13 07:51:26;;;;;;;27.92;15.35;;;8.40;99.90;;;;;;4823968;29;20106;-89
2021/12/13 07:53:57;;;;;;;30.63;14.80;;;8.40;99.90;;;;;;4823184;29;20530;-90
2021/12/13 07:56:33;;;;;;;31.90;16.00;;;8.40;99.90;;;;;;4823965;29;20051;-92
2021/12/13 07:59:13;;;;;;;29.35;16.08;;;8.50;99.90;;;;;;4825719;29;20107;-92
2021/12/13 08:01:49;;;;;;;32.55;16.08;;;8.40;99.90;;;;;;4827001;29;20146;-91
2021/12/13 08:04:23;;;;;;;33.58;15.98;;;8.40;99.90;;;;;;4826817;29;20186;-88
2021/12/13 08:07:13;;;;;;;27.23;14.80;;;8.40;99.90;;;;;;4827038;29;20050;-92
2021/12/13 08:09:53;;;;;;;26.75;15.15;;;8.50;99.90;;;;;;4826991;29;20049;-94
2021/12/13 08:12:35;;;;;;;34.42;17.42;;;8.50;99.90;;;;;;4826653;29;20089;-89
2021/12/13 08:15:23;;;;;;;33.17;16.65;;;8.50;99.90;;;;;;4826607;29;20481;-90
2021/12/13 08:18:21;;;;;;;32.90;17.55;;;8.50;99.90;;;;;;4817079;29;20415;-88
2021/12/13 08:21:00;;;;;;;34.00;18.10;;;8.50;99.90;;;;;;4808710;29;20051;-87
2021/12/13 08:23:43;;;;;;;35.80;18.58;;;8.60;99.90;;;;;;4807874;29;20050;-89
2021/12/13 08:26:15;;;;;;;35.92;17.40;;;8.60;99.90;;;;;;4808137;29;20059;-88
2021/12/13 08:28:56;;;;;;;31.25;18.08;;;8.60;99.90;;;;;;4807871;29;20054;-88
2021/12/13 08:31:33;;;;;;;34.53;18.80;;;8.60;99.90;;;;;;4807771;29;20051;-89
2021/12/13 08:34:11;;;;;;;35.13;18.95;;;8.60;99.90;;;;;;4807814;29;20088;-89
2021/12/13 08:36:52;;;;;;;33.28;17.50;;;8.60;99.90;;;;;;4807941;29;20105;-89
2021/12/13 08:39:32;;;;;;;31.52;17.80;;;8.60;99.90;;;;;;4807639;29;20098;-91
2021/12/13 08:42:09;;;;;;;34.28;18.63;;;8.70;99.90;;;;;;4807681;29;20058;-91
2021/12/13 08:45:08;;;;;;;33.58;18.08;;;8.60;99.90;;;;;;4807637;29;20043;-90
2021/12/13 08:47:46;;;;;;;33.70;19.17;;;8.70;99.90;;;;;;4805190;29;20058;-89
2021/12/13 08:50:22;;;;;;;35.00;18.95;;;8.70;99.90;;;;;;4807751;29;20046;-90
2021/12/13 08:52:55;;;;;;;32.58;18.08;;;8.70;99.90;;;;;;4807877;29;20153;-89
2021/12/13 08:55:26;;;;;;;;;;;8.70;99.90;;;;;;4807892;29;20496;-88
2021/12/13 08:58:07;;;;;;;32.13;16.75;;;8.70;99.90;;;;;;4807347;29;20077;-89
2021/12/13 09:00:59;;;;;;;34.67;18.23;;;8.70;99.90;;;;;;4807518;29;20093;-89
2021/12/13 09:03:28;;;;;;;29.80;18.02;;;8.70;99.90;;;;;;4807383;29;20085;-90
2021/12/13 09:41:08;;;;;;;33.97;17.90;;;8.80;99.90;;;;;;5171426;24;20053;-88
2021/12/13 09:44:16;;;;;;;32.17;16.52;;;8.90;99.90;;;;;;4847140;29;20056;-92
2021/12/13 09:46:52;;;;;;;29.40;15.48;;;8.90;99.90;;;;;;4846701;29;20049;-90
2021/12/13 09:49:39;;;;;;;27.75;15.38;;;8.90;99.90;;;;;;4846893;29;20041;-93
2021/12/13 09:52:30;;;;;;;33.13;16.30;;;8.90;99.90;;;;;;4846422;29;20402;-93
2021/12/13 09:55:08;;;;;;;28.48;16.02;;;8.90;99.90;;;;;;4846904;29;20041;-93
2021/12/13 09:58:04;;;;;;;;;;;;;;;;;;;;;
2021/12/13 10:00:54;;;;;;;30.25;14.95;;;8.90;99.90;;;;;;4843810;29;20490;-96
2021/12/13 10:03:31;;;;;;;26.25;15.20;;;8.90;99.90;;;;;;4847813;29;20136;-95
2021/12/13 10:06:01;;;;;;;29.02;14.52;;;8.90;99.90;;;;;;4846978;29;20058;-95
2021/12/13 10:08:43;;;;;;;30.83;15.50;;;8.90;99.90;;;;;;4847807;29;20437;-93
2021/12/13 10:11:28;;;;;;;31.35;15.45;;;8.90;99.90;;;;;;4848107;29;20505;-85
2021/12/13 10:14:33;;;;;;;27.58;14.50;;;9.00;99.90;;;;;;4857046;29;20132;-89
2021/12/13 10:31:38;;;;;;;;;;;;;;;;;;;;;
2021/12/13 10:34:33;;;;;;;;;;;;;;;;;;;;;
2021/12/13 11:05:47;;;;;;;26.23;14.27;;;8.90;99.90;;;;;;1365244;23;20302;-85
2021/12/13 11:08:41;;;;;;;27.48;15.05;;;8.90;99.90;;;;;;4818200;29;20069;-95
2021/12/13 11:11:19;;;;;;;28.40;15.38;;;8.90;99.90;;;;;;4842235;29;20113;-95
2021/12/13 11:14:24;;;;;;;28.85;15.27;;;8.90;99.90;;;;;;4835919;29;20060;-96
2021/12/13 11:25:15;;;;;;;35.20;16.30;;;8.90;99.90;;;;;;3078729;23;20068;-91
2021/12/13 11:27:43;;;;;;;36.78;17.80;;;9.00;99.90;;;;;;4845414;29;20466;-96
2021/12/13 11:30:34;;;;;;;36.85;17.48;;;9.00;99.90;;;;;;4845155;29;20149;-94
2021/12/13 11:33:20;;;;;;;33.22;16.58;;;9.00;99.90;;;;;;4844951;29;20046;-85
2021/12/13 11:36:52;;;;;;;29.75;17.42;;;9.00;99.90;;;;;;4845371;29;20140;-94
2021/12/13 11:40:01;;;;;;;36.03;18.00;;;9.00;99.90;;;;;;4861115;29;20049;-93
2021/12/13 11:43:04;;;;;;;;;;;;;;;;;;;;;
2021/12/13 11:46:53;;;;;;;40.10;18.55;;;9.00;99.90;;;;;;4836585;29;20509;-96
2021/12/13 11:49:43;;;;;;;35.08;18.00;;;9.00;99.90;;;;;;4809408;29;20050;-91
2021/12/13 12:07:36;;;;;;;41.78;18.30;;;9.10;99.90;;;;;;4795418;29;20093;-93
2021/12/13 12:11:25;;;;;;;;;;;;;;;;;;;;;
2021/12/13 12:14:43;;;;;;;39.15;20.23;;;9.00;99.90;;;;;;4731962;30;20068;-94
2021/12/13 12:17:26;;;;;;;41.38;20.42;;;9.10;99.90;;;;;;4711688;30;20509;-95
2021/12/13 12:20:00;;;;;;;37.70;19.17;;;9.10;99.90;;;;;;4717878;30;20060;-93
2021/12/13 12:27:10;;;;;;;;;;;;;;;;;;;;;
2021/12/13 12:57:37;;;;;;;29.10;13.07;;;9.30;99.90;;;;;;4849841;29;20060;-91
2021/12/13 13:00:06;;;;;;;30.00;13.40;;;9.40;99.90;;;;;;4862555;29;20045;-92
2021/12/13 13:02:52;;;;;;;;;;;;;;;;;;;;;
2021/12/13 13:05:32;;;;;;;26.48;13.20;;;9.40;99.90;;;;;;4862222;29;20470;-92
2021/12/13 13:17:24;;;;;;;;;;;;;;;;;;;;;
2021/12/13 13:34:33;;;;;;;;;;;;;;;;;;;;;
2021/12/13 13:49:05;;;;;;;;;;;;;;;;;;;;;
2021/12/13 13:51:43;;;;;;;27.05;13.40;;;9.20;99.90;;;;;;4734400;30;20063;-87
2021/12/13 13:54:43;;;;;;;26.42;13.95;;;9.20;99.90;;;;;;4853448;29;20093;-87
2021/12/13 13:58:09;;;;;;;27.23;14.90;;;9.20;99.90;;;;;;4863940;29;20053;-87
2021/12/13 14:01:01;;;;;;;26.52;12.82;;;9.20;99.90;;;;;;4863829;29;20185;-86
2021/12/13 14:04:30;;;;;;;29.40;14.07;;;9.10;99.90;;;;;;4864240;29;20044;-87
2021/12/13 14:15:17;;;;;;;29.30;14.43;;;9.00;99.90;;;;;;4750959;29;20077;-94
2021/12/13 14:24:10;;;;;;;33.75;15.15;;;9.00;99.90;;;;;;4828052;29;20054;-92
2021/12/13 14:26:43;;;;;;;29.92;15.52;;;9.00;99.90;;;;;;4792573;29;20058;-90
2021/12/13 14:29:27;;;;;;;;;;;;;;;;;;;;;
2021/12/13 14:31:59;;;;;;;29.08;14.35;;;9.00;99.90;;;;;;4819032;29;20065;-90
2021/12/13 14:35:26;;;;;;;;;;;;;;;;;;;;;
2021/12/13 14:41:35;;;;;;;33.05;17.27;;;9.00;99.90;;;;;;4810435;29;20529;-88
2021/12/13 14:44:08;;;;;;;43.70;19.73;;;8.90;99.90;;;;;;4808594;29;20049;-87
2021/12/13 14:47:11;;;;;;;42.75;19.88;;;8.90;99.90;;;;;;4808349;29;20046;-87
2021/12/13 14:50:30;;;;;;;44.25;19.75;;;8.90;99.90;;;;;;4808574;29;20415;-86
2021/12/13 14:53:20;;;;;;;42.92;20.15;;;8.90;99.90;;;;;;4807025;29;20069;-89
2021/12/13 14:55:48;;;;;;;46.80;20.63;;;8.90;99.90;;;;;;4806605;29;20058;-87
2021/12/13 14:58:34;;;;;;;;;;;;;;;;;;;;;
2021/12/13 15:01:11;;;;;;;47.58;21.42;;;8.90;99.90;;;;;;4807117;29;20065;-87
2021/12/13 15:03:51;;;;;;;41.22;19.30;;;8.80;99.90;;;;;;4808507;29;20509;-88
2021/12/13 15:06:27;;;;;;;48.92;20.65;;;8.80;99.90;;;;;;4808689;29;20069;-86
2021/12/13 15:09:18;;;;;;;44.92;19.15;;;8.80;99.90;;;;;;4828379;29;20048;-90
2021/12/13 15:12:34;;;;;;;;;;;;;;;;;;;;;
2021/12/13 15:15:31;;;;;;;;;;;;;;;;;;;;;
2021/12/13 15:18:23;;;;;;;38.97;20.30;;;8.80;99.90;;;;;;4832741;29;20065;-89
2021/12/13 15:21:40;;;;;;;44.53;19.17;;;8.80;99.90;;;;;;4821569;29;20142;-92
2021/12/13 15:24:48;;;;;;;;;;;;;;;;;;;;;
2021/12/13 15:39:41;;;;;;;40.42;17.10;;;8.70;99.90;;;;;;4679414;30;19930;-92
2021/12/13 15:52:25;;;;;;;41.72;17.58;;;8.60;99.90;;;;;;4659652;30;20083;-86
2021/12/13 16:12:56;;;;;;;44.25;19.73;;;8.60;99.90;;;;;;4741587;30;20060;-92
2021/12/13 16:16:27;;;;;;;;;;;;;;;;;;;;;
2021/12/13 16:30:03;;;;;;;46.97;20.88;;;8.50;99.90;;;;;;4751764;30;20058;-84
2021/12/13 16:32:42;;;;;;;;;;;;;;;;;;;;;
2021/12/13 16:35:45;;;;;;;51.72;20.42;;;8.50;99.90;;;;;;4819241;29;20358;-93
2021/12/13 16:45:11;;;;;;;;;;;;;;;;;;;;;
2021/12/13 16:55:53;;;;;;;;;;;;;;;;;;;;;
2021/12/13 16:58:42;;;;;;;;;;;;;;;;;;;;;
2021/12/13 17:01:17;;;;;;;55.28;23.88;;;8.50;99.90;;;;;;4807506;29;20061;-92
2021/12/13 17:03:43;;;;;;;69.67;27.03;;;8.50;99.90;;;;;;4785113;29;20480;-87
2021/12/13 17:06:49;;;;;;;65.63;27.23;;;8.50;99.90;;;;;;4807303;29;20065;-94
2021/12/13 17:09:19;;;;;;;67.88;25.95;;;8.50;99.90;;;;;;4817969;29;20069;-96
2021/12/13 17:17:33;;;;;;;61.47;26.08;;;8.50;99.90;;;;;;4926721;23;20034;-96
2021/12/13 17:20:33;;;;;;;57.72;26.98;;;8.50;99.90;;;;;;4835276;29;20207;-92
2021/12/13 17:27:38;;;;;;;;;;;;;;;;;;;;;
2021/12/13 17:30:30;;;;;;;58.35;24.17;;;8.50;99.90;;;;;;4806494;29;20097;-93
2021/12/13 17:33:00;;;;;;;51.58;25.95;;;8.50;99.90;;;;;;4818357;29;20042;-90
2021/12/13 17:35:43;;;;;;;61.47;27.45;;;8.50;99.90;;;;;;4831551;29;20042;-91
2021/12/13 17:38:37;;;;;;;59.63;27.33;;;8.40;99.90;;;;;;4826989;29;20475;-85
2021/12/13 17:41:31;;;;;;;58.45;27.35;;;8.40;99.90;;;;;;4810934;29;20056;-93
2021/12/13 17:44:12;;;;;;;62.75;27.02;;;8.40;99.90;;;;;;4823283;29;20513;-91
2021/12/13 17:46:46;;;;;;;63.95;28.05;;;8.40;99.90;;;;;;4827262;29;20171;-91
2021/12/13 17:49:32;;;;;;;67.40;28.90;;;8.40;99.90;;;;;;4828374;29;20119;-85
2021/12/13 17:52:00;;;;;;;58.25;29.67;;;8.40;99.90;;;;;;4827458;29;20084;-91
2021/12/13 17:55:37;;;;;;;;;;;;;;;;;;;;;
2021/12/13 17:58:34;;;;;;;59.30;27.70;;;8.40;99.90;;;;;;4843871;29;20525;-95
2021/12/13 18:01:18;;;;;;;67.20;29.55;;;8.40;99.90;;;;;;4828252;29;20137;-91
2021/12/13 18:04:10;;;;;;;67.05;28.73;;;8.40;99.90;;;;;;4828379;29;20111;-94
2021/12/13 18:06:51;;;;;;;;;;;;;;;;;;;;;
2021/12/13 18:09:44;;;;;;;59.88;27.60;;;8.40;99.90;;;;;;4827279;29;20064;-90
2021/12/13 18:12:22;;;;;;;63.78;27.75;;;8.30;99.90;;;;;;4828013;29;20147;-91
2021/12/13 18:14:48;;;;;;;72.60;27.90;;;8.40;99.90;;;;;;4827412;29;20061;-88
2021/12/13 18:17:54;;;;;;;64.47;28.60;;;8.30;99.90;;;;;;4827573;29;20087;-90
2021/12/13 18:23:53;;;;;;;64.63;26.83;;;8.40;99.90;;;;;;4827283;29;20054;-91
2021/12/13 18:26:40;;;;;;;;;;;;;;;;;;;;;
2021/12/13 18:29:56;;;;;;;74.70;27.65;;;8.30;99.90;;;;;;4826976;29;20114;-90
2021/12/13 18:33:13;;;;;;;;;;;;;;;;;;;;;
2021/12/13 18:43:23;;;;;;;59.75;27.92;;;8.40;99.90;;;;;;4783569;29;20110;-92
2021/12/13 19:01:41;;;;;;;65.03;25.80;;;8.40;99.90;;;;;;4817661;29;20145;-91
2021/12/13 19:05:03;;;;;;;56.78;25.27;;;8.40;99.90;;;;;;4736672;30;20427;-90
2021/12/13 19:08:12;;;;;;;;;;;;;;;;;;;;;
2021/12/13 19:12:09;;;;;;;;;;;;;;;;;;;;;
2021/12/13 19:14:57;;;;;;;52.35;23.90;;;8.40;99.90;;;;;;4740577;30;20059;-90
2021/12/13 19:17:50;;;;;;;54.78;24.77;;;8.40;99.90;;;;;;4739321;29;20518;-90
2021/12/13 19:21:18;;;;;;;;;;;;;;;;;;;;;
2021/12/13 19:25:12;;;;;;;;;;;;;;;;;;;;;